createdAt,value
2023-03-08T00:02:31.593Z,830.98505
2023-03-08T00:07:33.261Z,754.52355
2023-03-08T00:12:34.907Z,678.67055
2023-03-08T00:17:36.544Z,637.93165
2023-03-08T00:22:38.229Z,590.95945
2023-03-08T00:27:39.892Z,529.67615
2023-03-08T00:32:41.628Z,475.9173
2023-03-08T00:37:44.119Z,422.76695
2023-03-08T00:42:45.754Z,377.6944
2023-03-08T00:47:47.521Z,335.31445
2023-03-08T00:52:49.147Z,290.79525
2023-03-08T00:57:51.513Z,265.419
2023-03-08T01:02:53.164Z,227.502
2023-03-08T01:07:54.815Z,195.39425
2023-03-08T01:12:56.507Z,163.0469
2023-03-08T01:17:58.168Z,139.25655
2023-03-08T01:22:59.819Z,111.7962
2023-03-08T01:28:01.450Z,87.26805
2023-03-08T01:33:03.174Z,65.1929
2023-03-08T01:38:04.851Z,38.6548
2023-03-08T01:43:06.517Z,28.43775
2023-03-08T01:48:08.122Z,17.79665
2023-03-08T01:53:09.760Z,4.22335
2023-03-08T01:58:11.409Z,3.67
2023-03-08T02:03:13.065Z,0.4148
2023-03-08T02:08:14.647Z,0
2023-03-08T02:13:16.287Z,0
2023-03-08T02:18:17.964Z,0
2023-03-08T02:23:19.593Z,0
2023-03-08T02:28:21.388Z,0
2023-03-08T02:33:23.160Z,0
2023-03-08T02:38:24.850Z,0
2023-03-08T02:43:26.727Z,0
2023-03-08T02:48:28.386Z,0
2023-03-08T02:53:30.008Z,0
2023-03-08T02:58:31.743Z,0
2023-03-08T03:03:33.431Z,0
2023-03-08T03:08:35.078Z,0
2023-03-08T03:13:36.782Z,0
2023-03-08T03:18:38.349Z,0
2023-03-08T03:23:39.974Z,0
2023-03-08T03:28:41.606Z,0
2023-03-08T03:33:43.237Z,0
2023-03-08T03:38:44.799Z,0
2023-03-08T03:43:46.375Z,0
2023-03-08T03:48:48.070Z,0
2023-03-08T03:53:49.690Z,0
2023-03-08T03:58:51.515Z,0
2023-03-08T04:03:53.214Z,0
2023-03-08T04:08:54.923Z,0
2023-03-08T04:13:56.560Z,0
2023-03-08T04:18:58.183Z,0
2023-03-08T04:24:00.816Z,0
2023-03-08T04:29:02.579Z,0
2023-03-08T04:34:04.271Z,0
2023-03-08T04:39:05.880Z,0
2023-03-08T04:44:07.537Z,0
2023-03-08T04:49:09.159Z,0
2023-03-08T04:54:10.792Z,0
2023-03-08T04:59:12.403Z,0
2023-03-08T05:04:14.160Z,0
2023-03-08T05:09:15.811Z,0
2023-03-08T05:14:17.473Z,0
2023-03-08T05:19:19.153Z,0
2023-03-08T05:24:20.788Z,0
2023-03-08T05:29:22.438Z,0
2023-03-08T05:34:24.113Z,0
2023-03-08T05:39:25.754Z,0
2023-03-08T05:44:27.427Z,0
2023-03-08T05:49:29.022Z,0
2023-03-08T05:54:30.612Z,0
2023-03-08T05:59:32.215Z,0
2023-03-08T06:04:33.847Z,0
2023-03-08T06:09:35.457Z,0
2023-03-08T06:14:37.030Z,0
2023-03-08T06:19:38.661Z,0
2023-03-08T06:24:40.385Z,0
2023-03-08T06:29:41.983Z,0
2023-03-08T06:34:43.622Z,0
2023-03-08T06:39:45.265Z,0
2023-03-08T06:44:46.881Z,0
2023-03-08T06:49:48.474Z,0
2023-03-08T06:54:50.071Z,0
2023-03-08T06:59:51.691Z,0
2023-03-08T07:04:53.277Z,0
2023-03-08T07:09:54.917Z,0
2023-03-08T07:14:56.549Z,0
2023-03-08T07:19:58.130Z,0
2023-03-08T07:24:59.931Z,0
2023-03-08T08:01:16.579Z,0
2023-03-08T08:06:20.264Z,0
2023-03-08T08:11:24.242Z,0
2023-03-08T08:16:28.082Z,0
2023-03-08T08:21:31.937Z,0
2023-03-08T08:26:35.862Z,0
2023-03-08T08:31:39.763Z,0
2023-03-08T08:36:43.736Z,0
2023-03-08T08:41:47.670Z,0
2023-03-08T08:46:51.424Z,0
2023-03-08T08:51:55.397Z,0
2023-03-08T08:56:59.183Z,0
2023-03-08T09:02:03.129Z,0
2023-03-08T09:07:06.952Z,0
2023-03-08T09:12:10.651Z,0
2023-03-08T09:17:14.423Z,0
2023-03-08T09:22:18.170Z,0
2023-03-08T09:27:21.922Z,0
2023-03-08T09:32:25.743Z,0
2023-03-08T09:37:29.470Z,0
2023-03-08T09:42:33.169Z,0
2023-03-08T09:47:36.968Z,0
2023-03-08T09:52:40.708Z,0
2023-03-08T09:57:44.429Z,0
2023-03-08T10:02:48.247Z,0
2023-03-08T10:07:51.975Z,0
2023-03-08T10:12:55.744Z,0
2023-03-08T10:17:59.536Z,0
2023-03-08T10:23:03.252Z,0
2023-03-08T10:28:06.971Z,0
2023-03-08T10:33:11.327Z,0
2023-03-08T10:38:15.672Z,0
2023-03-08T10:43:19.556Z,0
2023-03-08T10:48:23.361Z,0
2023-03-08T10:53:27.286Z,0
2023-03-08T10:58:31.208Z,0
2023-03-08T11:03:35.336Z,0
2023-03-08T11:08:39.035Z,0
2023-03-08T11:13:42.735Z,0
2023-03-08T11:18:46.566Z,0
2023-03-08T11:23:50.336Z,0
2023-03-08T11:28:54.137Z,0
2023-03-08T11:33:58.134Z,0
2023-03-08T11:39:02.307Z,0
2023-03-08T11:44:06.189Z,0
2023-03-08T11:49:10.030Z,0
2023-03-08T11:54:13.842Z,0
2023-03-08T11:59:17.573Z,0
2023-03-08T12:04:21.331Z,0
2023-03-08T12:09:25.497Z,0
2023-03-08T12:14:29.274Z,0
2023-03-08T12:19:32.964Z,0
2023-03-08T12:24:36.656Z,0
2023-03-08T12:29:40.558Z,0
2023-03-08T12:34:44.438Z,0
2023-03-08T12:39:48.378Z,0
2023-03-08T12:44:52.150Z,0
2023-03-08T12:49:56.361Z,0
2023-03-08T12:55:00.146Z,0
2023-03-08T13:00:03.969Z,0
2023-03-08T13:05:07.804Z,0
2023-03-08T13:10:11.786Z,0
2023-03-08T13:15:15.545Z,0
2023-03-08T13:20:19.404Z,0
2023-03-08T13:25:23.151Z,0
2023-03-08T13:30:26.990Z,0
2023-03-08T13:35:30.839Z,0
2023-03-08T13:40:34.703Z,0
2023-03-08T13:45:38.527Z,0
2023-03-08T13:50:42.384Z,0.88715
2023-03-08T13:55:46.108Z,1.16185
2023-03-08T14:00:49.788Z,0.8296
2023-03-08T14:05:53.580Z,4.0389
2023-03-08T14:10:57.576Z,10.0326
2023-03-08T14:16:01.347Z,22.81295
2023-03-08T14:21:05.161Z,37.12405
2023-03-08T14:26:08.995Z,54.73625
2023-03-08T14:31:12.972Z,89.09355
2023-03-08T14:36:16.736Z,118.3794
2023-03-08T14:41:20.572Z,147.4808
2023-03-08T14:46:24.404Z,178.6663
2023-03-08T14:51:28.305Z,212.9133
2023-03-08T14:56:32.055Z,252.23175
2023-03-08T15:01:36.066Z,286.5339
2023-03-08T15:06:39.835Z,325.61275
2023-03-08T15:11:43.538Z,371.5524
2023-03-08T15:16:47.248Z,488.89135
2023-03-08T15:21:51.153Z,987.3509
2023-03-08T15:26:54.895Z,842.84635
2023-03-08T15:31:58.592Z,502.0485
2023-03-08T15:37:02.434Z,491.70215
2023-03-08T15:42:06.429Z,592.45405
2023-03-08T15:47:10.185Z,710.59755
2023-03-08T15:52:13.936Z,1111.7092
2023-03-08T15:57:17.751Z,1435.89175
2023-03-08T16:02:21.613Z,1531.49065
2023-03-08T16:07:25.364Z,1920.7558
2023-03-08T16:12:29.196Z,2094.1852
2023-03-08T16:17:33.087Z,2086.4003
2023-03-08T16:22:37.084Z,1850.079
2023-03-08T16:27:41.012Z,1794.1049
2023-03-08T16:32:44.851Z,1640.9956
2023-03-08T16:37:48.601Z,1726.5123
2023-03-08T16:42:52.334Z,1755.72215
2023-03-08T16:47:56.500Z,2405.54015
2023-03-08T16:53:00.242Z,2663.25395
2023-03-08T16:58:04.130Z,2755.37285
2023-03-08T17:03:07.952Z,1641.4294
2023-03-08T17:08:11.716Z,1339.5083
2023-03-08T17:13:15.361Z,1394.76175
2023-03-08T17:18:21.871Z,1715.21545
2023-03-08T17:23:26.159Z,1660.2206
2023-03-08T17:28:29.929Z,1501.10045
2023-03-08T17:33:33.603Z,3651.4215
2023-03-08T17:38:37.361Z,3768.45645
2023-03-08T17:43:41.521Z,3086.5117
2023-03-08T17:48:45.415Z,2019.69615
2023-03-08T17:53:49.203Z,1856.5181
2023-03-08T17:58:52.970Z,1585.98965
2023-03-08T18:03:58.460Z,2605.4604
2023-03-08T18:09:00.222Z,3123.43045
2023-03-08T18:14:01.910Z,3762.8451
2023-03-08T18:19:05.605Z,3606.2521
2023-03-08T18:24:07.401Z,3432.876
2023-03-08T18:29:09.085Z,3332.25525
2023-03-08T18:34:10.770Z,3268.0569
2023-03-08T18:39:12.449Z,2400.10585
2023-03-08T18:44:14.096Z,3126.7714
2023-03-08T18:49:15.741Z,3146.26425
2023-03-08T18:54:17.714Z,3069.78375
2023-03-08T18:59:19.332Z,2988.5094
2023-03-08T19:04:20.967Z,2929.5118
2023-03-08T19:09:22.708Z,2411.3193
2023-03-08T19:14:24.330Z,2294.2672
2023-03-08T19:19:25.958Z,2200.61755
2023-03-08T19:24:27.707Z,2453.6288
2023-03-08T19:29:29.382Z,2544.62385
2023-03-08T19:34:31.067Z,2460.45345
2023-03-08T19:39:32.920Z,2124.2682
2023-03-08T19:44:34.583Z,2349.2486
2023-03-08T19:49:36.239Z,1276.82355
2023-03-08T19:54:37.998Z,1004.96595
2023-03-08T19:59:39.681Z,1079.86055
2023-03-08T20:04:41.388Z,1334.69545
2023-03-08T20:09:43.520Z,1691.8473
2023-03-08T20:14:45.225Z,2464.46965
2023-03-08T20:19:46.931Z,3093.0036
2023-03-08T20:24:48.612Z,2688.6344
2023-03-08T20:29:50.398Z,2809.3032
2023-03-08T20:34:52.019Z,2863.1742
2023-03-08T20:39:54.030Z,2064.15835
2023-03-08T20:44:55.681Z,2503.45535
2023-03-08T20:49:57.418Z,2801.99935
2023-03-08T20:54:59.087Z,2083.59605
2023-03-08T21:00:00.681Z,1711.0264
2023-03-08T21:05:02.397Z,1526.6783
2023-03-08T21:10:04.262Z,1595.11715
2023-03-08T21:15:05.940Z,1575.29155
2023-03-08T21:20:07.745Z,1560.74085
2023-03-08T21:25:09.544Z,1510.671
2023-03-08T21:30:11.351Z,1491.91595
2023-03-08T21:35:13.012Z,1419.9364
2023-03-08T21:40:14.803Z,1332.9631
2023-03-08T21:45:16.410Z,1292.53795
2023-03-08T21:50:18.281Z,1276.6961
2023-03-08T21:55:20.026Z,1266.5532
2023-03-08T22:00:21.689Z,1277.9321
2023-03-08T22:05:23.373Z,1287.7251
2023-03-08T22:10:25.169Z,1242.65255
2023-03-08T22:15:26.855Z,1197.8196
2023-03-08T22:20:28.540Z,1196.4733
2023-03-08T22:25:30.292Z,1281.6021
2023-03-08T22:30:31.897Z,1332.55805
2023-03-08T22:35:33.649Z,1385.30335
2023-03-08T22:40:35.484Z,1560.09805
2023-03-08T22:45:37.164Z,1582.6714
2023-03-08T22:50:38.847Z,1432.64445
2023-03-08T22:55:40.563Z,1325.49565
2023-03-08T23:00:42.215Z,1389.1768
2023-03-08T23:05:43.869Z,1638.5542
2023-03-08T23:10:45.608Z,1706.0175
2023-03-08T23:15:47.229Z,1584.1507
2023-03-08T23:20:48.982Z,1770.91935
2023-03-08T23:25:50.735Z,1536.90275
2023-03-08T23:30:52.404Z,1633.321
2023-03-08T23:35:54.136Z,1435.82365
2023-03-08T23:40:56.053Z,1468.9658
2023-03-08T23:45:57.702Z,1429.38875
2023-03-08T23:50:59.536Z,1432.0869
2023-03-08T23:56:01.313Z,1092.5797
